Time;durP1;ratioP1;P1;durP2;ratioP2;P2;SDS_P1;SDS_P2;PMS_P1;PMS_P2;Temp;Humidity;BMP_temperature;BMP_pressure;BME280_temperature;BME280_humidity;BME280_pressure;Samples;Min_cycle;Max_cycle;Signal;HPM_P1;HPM_P2
2023/07/24 00:01:09;;;;;;;2.75;2.40;;;;;;;17.22;100.00;100307.84;5020302;28;20054;-87
2023/07/24 00:03:35;;;;;;;2.97;2.55;;;;;;;17.22;100.00;100296.97;5037171;28;20377;-87
2023/07/24 00:06:00;;;;;;;2.70;2.50;;;;;;;17.21;100.00;100298.88;5028964;28;20034;-86
2023/07/24 00:08:26;;;;;;;2.75;2.55;;;;;;;17.22;100.00;100288.81;5029527;28;20028;-86
2023/07/24 00:10:51;;;;;;;3.40;2.30;;;;;;;17.20;100.00;100296.41;5032213;28;20702;-87
2023/07/24 00:13:17;;;;;;;3.85;2.22;;;;;;;17.15;100.00;100290.91;5023795;28;20084;-86
2023/07/24 00:15:42;;;;;;;2.70;2.33;;;;;;;17.09;100.00;100293.59;5025442;28;20029;-86
2023/07/24 00:18:08;;;;;;;2.40;2.20;;;;;;;17.07;100.00;100298.44;5031045;28;20038;-87
2023/07/24 00:20:33;;;;;;;3.10;2.50;;;;;;;17.16;100.00;100298.00;5031431;28;20029;-86
2023/07/24 00:22:59;;;;;;;3.28;2.50;;;;;;;17.18;100.00;100298.56;5029647;28;20458;-86
2023/07/24 00:25:24;;;;;;;2.42;2.10;;;;;;;17.22;100.00;100295.06;5030811;28;20032;-86
2023/07/24 00:27:49;;;;;;;3.03;2.72;;;;;;;17.19;100.00;100286.59;5032272;28;20391;-85
2023/07/24 00:30:15;;;;;;;4.57;2.50;;;;;;;17.25;99.85;100274.72;5023648;28;20025;-86
2023/07/24 00:32:40;;;;;;;4.10;2.55;;;;;;;17.19;99.49;100281.16;5017708;28;20512;-86
2023/07/24 00:35:06;;;;;;;3.38;2.63;;;;;;;17.10;99.68;100276.19;5028474;28;20088;-86
2023/07/24 00:37:32;;;;;;;3.20;2.80;;;;;;;17.12;99.92;100259.59;5022139;28;20485;-86
2023/07/24 00:39:57;;;;;;;4.53;2.80;;;;;;;17.20;99.63;100271.94;5028938;28;20026;-86
2023/07/24 00:42:22;;;;;;;2.85;2.50;;;;;;;17.18;99.20;100263.19;5036956;28;20036;-86
2023/07/24 00:44:48;;;;;;;3.20;2.90;;;;;;;17.21;99.27;100270.84;5027793;28;20174;-86
2023/07/24 00:47:13;;;;;;;4.82;2.97;;;;;;;17.28;98.77;100268.75;5033369;28;20022;-86
2023/07/24 00:49:39;;;;;;;3.45;2.75;;;;;;;17.25;99.23;100263.84;5016850;28;20029;-86
2023/07/24 00:52:05;;;;;;;3.20;2.75;;;;;;;17.25;99.27;100256.47;5004441;28;20049;-86
2023/07/24 00:54:31;;;;;;;3.08;2.75;;;;;;;17.14;100.00;100260.19;5004988;28;20071;-86
2023/07/24 00:56:56;;;;;;;2.63;2.42;;;;;;;17.19;99.98;100253.97;5005369;28;20068;-86
2023/07/24 00:59:21;;;;;;;2.97;2.67;;;;;;;17.18;99.70;100255.88;5008965;28;20029;-86
2023/07/24 01:01:47;;;;;;;3.13;2.70;;;;;;;17.13;100.00;100259.34;5011289;28;20026;-86
2023/07/24 01:04:12;;;;;;;2.80;2.60;;;;;;;17.13;100.00;100258.53;4993809;28;20455;-86
2023/07/24 01:06:37;;;;;;;3.05;2.30;;;;;;;17.20;100.00;100252.88;5029819;28;20018;-86
2023/07/24 01:09:03;;;;;;;3.30;2.40;;;;;;;17.19;100.00;100235.75;5014247;28;20030;-86
2023/07/24 01:11:37;;;;;;;3.30;2.60;;;;;;;17.20;100.00;100240.13;5015185;28;20049;-86
2023/07/24 01:14:37;;;;;;;2.95;2.45;;;;;;;17.23;100.00;100227.91;5013151;28;20049;-86
2023/07/24 01:17:02;;;;;;;3.58;2.58;;;;;;;17.19;100.00;100229.50;5012538;28;20029;-86
2023/07/24 01:19:38;;;;;;;3.17;2.40;;;;;;;17.09;100.00;100225.59;4992539;28;20093;-85
2023/07/24 01:22:09;;;;;;;2.88;2.53;;;;;;;17.08;100.00;100229.41;5019351;28;20033;-86
2023/07/24 01:25:02;;;;;;;3.10;2.67;;;;;;;17.06;100.00;100228.81;5029081;28;20046;-85
2023/07/24 01:27:27;;;;;;;2.53;2.33;;;;;;;17.08;100.00;100226.69;5023452;28;20050;-86
2023/07/24 01:29:53;;;;;;;4.10;2.60;;;;;;;17.12;100.00;100218.81;5020263;28;20076;-85
2023/07/24 01:32:19;;;;;;;4.03;2.53;;;;;;;17.16;100.00;100213.69;5010219;28;20039;-86
2023/07/24 01:34:44;;;;;;;3.05;2.50;;;;;;;17.13;100.00;100210.38;5014271;28;20370;-86
2023/07/24 01:37:10;;;;;;;3.15;2.83;;;;;;;17.10;100.00;100194.59;4996434;28;20033;-85
2023/07/24 01:39:35;;;;;;;3.53;2.90;;;;;;;17.10;100.00;100205.50;5013264;28;20029;-88
2023/07/24 01:42:03;;;;;;;6.32;2.80;;;;;;;17.13;100.00;100210.38;5012152;28;20046;-86
2023/07/24 01:44:28;;;;;;;3.15;2.60;;;;;;;17.15;100.00;100201.16;4996287;28;20393;-88
2023/07/24 01:46:54;;;;;;;2.95;2.65;;;;;;;17.15;100.00;100202.00;5011309;28;20025;-87
2023/07/24 01:49:19;;;;;;;3.00;2.80;;;;;;;17.10;100.00;100204.66;5005163;28;20026;-87
2023/07/24 01:51:45;;;;;;;2.47;2.28;;;;;;;17.16;100.00;100191.91;5026463;28;20063;-85
2023/07/24 01:54:10;;;;;;;3.15;2.40;;;;;;;17.13;100.00;100194.06;5029113;28;20029;-88
2023/07/24 01:56:35;;;;;;;4.20;2.70;;;;;;;17.18;100.00;100200.66;5028762;28;20107;-85
2023/07/24 01:59:01;;;;;;;3.72;2.60;;;;;;;17.18;100.00;100195.22;5031341;28;20029;-87
2023/07/24 02:01:32;;;;;;;2.80;2.50;;;;;;;17.18;99.72;100185.16;5028608;28;20034;-87
2023/07/24 02:03:57;;;;;;;3.13;2.70;;;;;;;17.15;99.80;100187.56;5022279;28;20041;-88
2023/07/24 02:06:23;;;;;;;3.13;2.60;;;;;;;17.08;100.00;100185.88;5023026;28;20030;-87
2023/07/24 02:08:51;;;;;;;3.45;2.70;;;;;;;17.05;100.00;100180.13;5021320;28;20026;-88
2023/07/24 02:11:16;;;;;;;4.22;2.83;;;;;;;17.01;100.00;100168.94;5034863;28;20105;-86
2023/07/24 02:13:43;;;;;;;5.05;3.00;;;;;;;16.94;100.00;100168.31;5028829;28;20040;-87
2023/07/24 02:16:09;;;;;;;3.30;3.00;;;;;;;16.96;100.00;100177.03;5028586;28;20026;-86
2023/07/24 02:18:34;;;;;;;3.38;2.70;;;;;;;17.05;100.00;100170.06;5017790;28;20033;-88
2023/07/24 02:21:00;;;;;;;3.58;3.03;;;;;;;17.10;100.00;100172.84;5032741;28;20029;-87
2023/07/24 02:23:25;;;;;;;4.20;2.60;;;;;;;17.09;100.00;100164.94;5030473;28;20029;-87
2023/07/24 02:25:52;;;;;;;3.85;2.60;;;;;;;17.11;99.60;100163.63;5034123;28;20481;-87
2023/07/24 02:28:17;;;;;;;4.18;3.10;;;;;;;17.11;99.50;100169.06;5023851;28;20477;-86
2023/07/24 02:30:43;;;;;;;3.97;3.05;;;;;;;17.08;99.78;100164.13;5018564;28;20025;-86
2023/07/24 02:33:08;;;;;;;3.40;3.10;;;;;;;17.02;99.69;100157.00;5020948;28;20033;-86
2023/07/24 02:35:42;;;;;;;3.35;3.05;;;;;;;17.02;100.00;100158.91;5021487;28;20018;-85
2023/07/24 02:38:07;;;;;;;4.30;3.20;;;;;;;17.04;100.00;100159.44;5024122;28;20034;-84
2023/07/24 02:40:33;;;;;;;4.78;2.95;;;;;;;17.10;99.87;100161.13;5028386;28;20029;-87
2023/07/24 02:42:59;;;;;;;3.92;2.95;;;;;;;17.01;100.00;100152.63;5020574;28;20578;-85
2023/07/24 02:45:24;;;;;;;3.40;3.10;;;;;;;17.07;100.00;100154.31;5028016;28;20349;-86
2023/07/24 02:47:49;;;;;;;4.03;3.33;;;;;;;17.04;99.97;100152.13;5041721;28;20163;-86
2023/07/24 02:50:15;;;;;;;5.63;3.55;;;;;;;16.98;100.00;100158.56;5020893;28;20049;-84
2023/07/24 02:52:40;;;;;;;4.57;2.97;;;;;;;16.95;100.00;100154.47;5026274;28;20037;-87
2023/07/24 02:55:06;;;;;;;4.05;3.60;;;;;;;17.00;100.00;100156.41;5032186;28;20029;-87
2023/07/24 02:57:31;;;;;;;4.63;3.50;;;;;;;17.03;100.00;100158.63;5024051;28;20025;-85
2023/07/24 02:59:57;;;;;;;3.85;3.30;;;;;;;17.01;100.00;100163.50;5031421;28;20033;-85
2023/07/24 03:02:22;;;;;;;3.42;3.13;;;;;;;17.00;100.00;100152.91;5031656;28;20389;-85
2023/07/24 03:04:47;;;;;;;4.38;3.45;;;;;;;16.97;100.00;100152.34;5031445;28;20033;-84
2023/07/24 03:07:13;;;;;;;5.60;3.45;;;;;;;16.96;100.00;100156.13;5030452;28;20022;-85
2023/07/24 03:09:38;;;;;;;3.90;3.33;;;;;;;16.94;100.00;100162.88;5021239;28;20034;-86
2023/07/24 03:12:04;;;;;;;5.03;3.70;;;;;;;16.94;100.00;100158.25;5027808;28;20041;-85
2023/07/24 03:14:29;;;;;;;5.28;3.60;;;;;;;16.83;100.00;100160.03;5028118;28;20053;-85
2023/07/24 03:16:55;;;;;;;4.28;3.55;;;;;;;16.80;100.00;100135.28;5026498;28;20378;-86
2023/07/24 03:19:20;;;;;;;6.43;4.22;;;;;;;16.66;100.00;100140.28;5037405;28;20040;-85
2023/07/24 03:21:46;;;;;;;10.25;4.72;;;;;;;16.58;100.00;100132.59;5019728;28;20097;-84
2023/07/24 03:24:11;;;;;;;5.85;4.07;;;;;;;16.64;100.00;100132.41;5020653;28;20034;-84
2023/07/24 03:26:36;;;;;;;7.03;4.18;;;;;;;16.64;100.00;100131.56;5028992;28;20037;-83
2023/07/24 03:29:03;;;;;;;4.43;3.95;;;;;;;16.79;100.00;100128.19;5031457;28;20543;-83
2023/07/24 03:31:28;;;;;;;6.47;3.92;;;;;;;16.80;100.00;100127.13;5024209;28;20079;-82
2023/07/24 03:33:54;;;;;;;4.32;3.88;;;;;;;16.77;100.00;100133.88;5029738;28;20029;-83
2023/07/24 03:36:19;;;;;;;5.28;3.78;;;;;;;16.73;100.00;100123.78;5022939;28;20030;-82
2023/07/24 03:38:44;;;;;;;5.00;3.40;;;;;;;16.75;100.00;100122.47;5013972;28;20044;-83
2023/07/24 03:41:11;;;;;;;5.20;3.83;;;;;;;16.80;100.00;100122.47;5029606;28;20026;-83
2023/07/24 03:43:36;;;;;;;5.90;3.55;;;;;;;16.69;100.00;100115.31;5033090;28;20029;-82
2023/07/24 03:46:01;;;;;;;3.45;3.15;;;;;;;16.74;100.00;100119.97;5023943;28;20030;-82
2023/07/24 03:48:27;;;;;;;4.13;3.30;;;;;;;16.82;100.00;100120.34;5029818;28;20022;-81
2023/07/24 03:50:58;;;;;;;4.22;3.35;;;;;;;16.80;100.00;100111.63;5025918;28;20196;-81
2023/07/24 03:53:23;;;;;;;3.80;3.40;;;;;;;16.74;100.00;100115.38;5022722;28;20620;-81
2023/07/24 03:55:49;;;;;;;4.25;3.65;;;;;;;16.63;100.00;100110.91;5030872;28;20021;-81
2023/07/24 03:58:14;;;;;;;5.50;3.58;;;;;;;16.67;100.00;100109.31;5022777;28;20033;-81
2023/07/24 04:00:40;;;;;;;3.55;3.25;;;;;;;16.72;100.00;100112.09;5020826;28;20503;-82
2023/07/24 04:03:05;;;;;;;4.55;3.22;;;;;;;16.74;100.00;100115.38;5022880;28;20033;-82
2023/07/24 04:05:30;;;;;;;4.90;3.20;;;;;;;16.68;100.00;100106.31;5007444;28;20032;-82
2023/07/24 04:07:56;;;;;;;3.63;3.33;;;;;;;16.73;100.00;100102.03;5030118;28;20091;-86
2023/07/24 04:10:21;;;;;;;3.55;3.20;;;;;;;16.69;100.00;100107.16;5029241;28;20029;-84
2023/07/24 04:12:47;;;;;;;3.45;3.15;;;;;;;16.70;100.00;100097.94;5011749;28;20030;-83
2023/07/24 04:15:12;;;;;;;3.53;2.90;;;;;;;16.68;100.00;100100.09;5011795;28;20036;-81
2023/07/24 04:17:39;;;;;;;5.72;3.08;;;;;;;16.67;100.00;100107.44;5029983;28;20022;-81
2023/07/24 04:20:05;;;;;;;3.58;2.92;;;;;;;16.52;100.00;100102.66;5030164;28;20036;-80
2023/07/24 04:22:31;;;;;;;3.03;2.70;;;;;;;16.58;100.00;100097.28;5018073;28;20848;-80
2023/07/24 04:24:56;;;;;;;3.42;2.83;;;;;;;16.61;100.00;100097.56;5028794;28;20037;-79
2023/07/24 04:27:21;;;;;;;2.90;2.60;;;;;;;16.49;100.00;100108.59;5016237;28;20038;-82
2023/07/24 04:29:47;;;;;;;3.70;2.90;;;;;;;16.50;100.00;100101.28;5018331;28;20030;-80
2023/07/24 04:32:12;;;;;;;3.33;2.58;;;;;;;16.52;100.00;100094.50;5043694;28;20034;-79
2023/07/24 04:34:38;;;;;;;3.88;2.53;;;;;;;16.49;100.00;100097.72;5044279;28;20025;-79
2023/07/24 04:37:03;;;;;;;3.45;2.90;;;;;;;16.34;100.00;100098.34;5043836;28;20022;-81
2023/07/24 04:39:29;;;;;;;3.88;2.80;;;;;;;16.31;100.00;100098.06;5029332;28;20037;-79
2023/07/24 04:41:54;;;;;;;5.03;3.30;;;;;;;16.31;100.00;100101.59;5029492;28;20029;-79
2023/07/24 04:44:20;;;;;;;3.25;2.70;;;;;;;16.42;100.00;100097.09;5019421;28;20034;-80
2023/07/24 04:46:45;;;;;;;3.03;2.60;;;;;;;16.46;100.00;100105.56;5029494;28;20469;-79
2023/07/24 04:49:10;;;;;;;3.83;2.78;;;;;;;16.44;100.00;100110.44;5030375;28;20390;-79
2023/07/24 04:51:36;;;;;;;3.33;2.88;;;;;;;16.32;100.00;100105.97;5021403;28;20104;-79
2023/07/24 04:54:01;;;;;;;3.60;2.90;;;;;;;16.27;100.00;100099.63;5031168;28;20034;-79
2023/07/24 04:56:26;;;;;;;3.90;3.25;;;;;;;16.18;100.00;100104.69;5029503;28;20517;-79
2023/07/24 04:58:52;;;;;;;4.38;3.15;;;;;;;16.21;100.00;100109.63;5029921;28;20026;-79
2023/07/24 05:01:17;;;;;;;3.22;2.92;;;;;;;16.29;100.00;100102.91;5030182;28;20017;-79
2023/07/24 05:03:43;;;;;;;2.97;2.58;;;;;;;16.41;100.00;100100.91;5019663;28;20092;-80
2023/07/24 05:06:08;;;;;;;3.25;2.80;;;;;;;16.32;100.00;100103.25;5024349;28;20029;-79
2023/07/24 05:08:33;;;;;;;2.50;2.30;;;;;;;16.33;100.00;100098.63;5030160;28;20034;-79
2023/07/24 05:10:59;;;;;;;2.03;1.83;;;;;;;16.19;100.00;100101.72;5010824;28;20030;-82
2023/07/24 05:13:25;;;;;;;2.20;2.00;;;;;;;16.08;100.00;100097.22;5011331;28;20501;-80
2023/07/24 05:15:50;;;;;;;2.15;1.92;;;;;;;16.05;100.00;100111.34;5030278;28;20030;-82
2023/07/24 05:18:16;;;;;;;2.38;2.10;;;;;;;16.06;100.00;100112.97;5027110;28;20076;-82
2023/07/24 05:20:46;;;;;;;2.85;2.50;;;;;;;16.00;100.00;100116.69;5030891;28;20029;-82
2023/07/24 05:23:11;;;;;;;2.47;2.28;;;;;;;16.05;100.00;100116.75;5029530;28;20030;-81
2023/07/24 05:25:37;;;;;;;2.47;2.28;;;;;;;16.08;100.00;100127.09;5030144;28;20078;-79
2023/07/24 05:28:02;;;;;;;2.60;2.40;;;;;;;16.06;100.00;100121.13;5030556;28;20026;-80
2023/07/24 05:30:28;;;;;;;2.65;2.45;;;;;;;15.85;100.00;100126.28;5014409;28;20025;-81
2023/07/24 05:32:53;;;;;;;2.97;2.67;;;;;;;15.77;100.00;100129.38;5031237;28;20117;-82
2023/07/24 05:35:19;;;;;;;3.53;2.45;;;;;;;15.82;100.00;100128.59;5028018;28;20033;-82
2023/07/24 05:37:44;;;;;;;3.40;3.10;;;;;;;16.01;100.00;100123.75;5014668;28;20044;-83
2023/07/24 05:40:10;;;;;;;3.33;3.08;;;;;;;16.06;100.00;100121.13;5033952;28;20116;-83
2023/07/24 05:42:41;;;;;;;2.95;2.65;;;;;;;16.06;100.00;100115.69;5019589;28;20036;-83
2023/07/24 05:45:09;;;;;;;3.13;2.85;;;;;;;16.26;100.00;100133.28;5032969;28;20030;-84
2023/07/24 05:47:34;;;;;;;3.58;3.03;;;;;;;16.15;100.00;100119.59;5027328;28;20022;-83
2023/07/24 05:50:00;;;;;;;3.40;3.10;;;;;;;16.15;100.00;100124.22;5017027;28;20049;-83
2023/07/24 05:52:25;;;;;;;3.63;2.97;;;;;;;16.19;100.00;100131.59;5026412;28;20481;-83
2023/07/24 05:54:50;;;;;;;3.53;3.22;;;;;;;16.13;100.00;100127.16;5033150;28;20033;-83
2023/07/24 05:57:16;;;;;;;4.38;3.03;;;;;;;15.96;100.00;100132.66;5034426;28;20033;-83
2023/07/24 05:59:41;;;;;;;5.15;3.35;;;;;;;16.02;100.00;100136.25;5018192;28;20029;-83
2023/07/24 06:02:07;;;;;;;3.70;3.40;;;;;;;15.97;100.00;100133.47;5036498;28;20103;-83
2023/07/24 06:04:33;;;;;;;4.35;3.60;;;;;;;15.84;100.00;100142.75;5032095;28;20025;-84
2023/07/24 06:06:58;;;;;;;4.35;3.92;;;;;;;16.07;100.00;100139.03;5031893;28;20029;-84
2023/07/24 06:09:23;;;;;;;4.22;3.70;;;;;;;16.21;100.00;100145.75;5022582;28;20026;-84
2023/07/24 06:11:49;;;;;;;3.95;3.60;;;;;;;16.24;100.00;100143.63;5017876;28;20652;-84
2023/07/24 06:14:14;;;;;;;3.60;3.30;;;;;;;16.37;100.00;100146.75;5031938;28;20477;-84
2023/07/24 06:16:40;;;;;;;3.60;3.30;;;;;;;16.45;98.94;100145.47;5034732;28;20104;-84
2023/07/24 06:19:06;;;;;;;4.38;3.58;;;;;;;16.51;98.97;100152.63;5028995;28;20083;-84
2023/07/24 06:21:31;;;;;;;3.80;3.17;;;;;;;16.44;99.21;100154.69;5031844;28;20033;-84
2023/07/24 06:23:57;;;;;;;4.10;3.70;;;;;;;16.56;97.04;100143.69;5033502;28;20025;-84
2023/07/24 06:26:22;;;;;;;3.70;3.40;;;;;;;16.48;97.70;100142.25;5032560;28;20026;-83
2023/07/24 06:28:48;;;;;;;3.55;3.25;;;;;;;16.67;96.71;100136.50;5030881;28;20080;-83
2023/07/24 06:31:13;;;;;;;3.30;3.00;;;;;;;16.78;96.06;100140.13;5033547;28;20377;-83
2023/07/24 06:33:44;;;;;;;3.88;3.40;;;;;;;16.68;95.93;100141.66;5032407;28;20477;-82
2023/07/24 06:36:10;;;;;;;3.65;3.30;;;;;;;16.85;94.29;100140.78;5031093;28;20029;-82
2023/07/24 06:38:36;;;;;;;3.78;3.30;;;;;;;17.04;93.31;100146.69;5033956;28;20628;-82
2023/07/24 06:41:01;;;;;;;3.42;3.13;;;;;;;17.41;91.41;100143.19;5025068;28;20481;-82
2023/07/24 06:43:27;;;;;;;4.53;3.95;;;;;;;17.51;90.66;100150.63;4997497;28;20087;-82
2023/07/24 06:45:53;;;;;;;4.28;3.88;;;;;;;17.54;91.05;100149.25;5025958;28;20029;-82
2023/07/24 06:48:18;;;;;;;5.50;3.80;;;;;;;17.67;89.65;100145.28;5015723;28;20024;-82
2023/07/24 06:50:43;;;;;;;4.40;4.00;;;;;;;17.59;89.99;100157.47;5020160;28;20069;-82
2023/07/24 06:53:09;;;;;;;4.68;4.25;;;;;;;17.63;90.22;100157.75;5031242;28;20025;-82
2023/07/24 06:55:34;;;;;;;4.97;4.47;;;;;;;17.71;90.74;100140.94;5032643;28;20033;-83
2023/07/24 06:58:00;;;;;;;5.63;4.70;;;;;;;17.56;93.31;100136.22;5031213;28;20025;-83
2023/07/24 07:00:25;;;;;;;5.47;4.97;;;;;;;17.74;91.57;100132.25;5031724;28;20041;-82
2023/07/24 07:02:50;;;;;;;5.40;4.90;;;;;;;18.03;88.83;100140.88;5032193;28;20078;-82
2023/07/24 07:05:16;;;;;;;5.90;5.20;;;;;;;18.07;89.21;100143.06;5023754;28;20079;-84
2023/07/24 07:07:41;;;;;;;6.07;5.47;;;;;;;17.96;89.80;100144.91;5032587;28;20060;-82
2023/07/24 07:10:07;;;;;;;5.47;4.95;;;;;;;18.48;87.62;100154.16;5018763;28;20083;-84
2023/07/24 07:12:32;;;;;;;5.78;5.18;;;;;;;18.36;87.97;100165.28;5012962;28;20481;-82
2023/07/24 07:14:58;;;;;;;8.27;5.93;;;;;;;18.46;87.35;100161.78;5023843;28;20323;-82
2023/07/24 07:17:23;;;;;;;6.38;5.63;;;;;;;18.82;85.93;100161.06;5027581;28;20029;-81
2023/07/24 07:19:48;;;;;;;6.13;5.57;;;;;;;19.07;84.05;100147.50;5031577;28;20458;-82
2023/07/24 07:22:14;;;;;;;7.90;6.25;;;;;;;18.88;83.34;100155.38;5031393;28;20026;-81
2023/07/24 07:24:39;;;;;;;6.57;5.70;;;;;;;19.04;83.98;100145.31;5021563;28;20017;-82
2023/07/24 07:27:05;;;;;;;8.45;6.63;;;;;;;18.71;83.86;100157.50;5024580;28;20034;-82
2023/07/24 07:29:31;;;;;;;6.60;6.00;;;;;;;18.87;82.25;100152.91;5033140;28;20093;-82
2023/07/24 07:31:56;;;;;;;6.75;6.07;;;;;;;18.63;83.87;100151.47;5030519;28;20025;-81
2023/07/24 07:34:22;;;;;;;8.45;6.80;;;;;;;18.74;84.51;100152.34;5026921;28;20045;-84
2023/07/24 07:36:47;;;;;;;7.13;5.80;;;;;;;19.63;81.26;100164.13;5033120;28;20021;-84
2023/07/24 07:39:13;;;;;;;7.95;6.35;;;;;;;19.77;78.41;100157.00;5032747;28;20468;-82
2023/07/24 07:41:38;;;;;;;7.50;6.30;;;;;;;19.69;77.72;100161.13;5032811;28;20025;-81
2023/07/24 07:44:04;;;;;;;7.55;6.50;;;;;;;20.33;76.60;100157.97;5032884;28;20023;-81
2023/07/24 07:46:29;;;;;;;8.93;6.22;;;;;;;21.29;72.76;100159.63;5036884;28;20085;-81
2023/07/24 07:48:55;;;;;;;7.57;6.75;;;;;;;21.43;72.38;100162.53;5031745;28;20064;-80
2023/07/24 07:51:20;;;;;;;7.28;6.05;;;;;;;22.31;68.22;100156.19;5029613;28;20045;-81
2023/07/24 07:53:45;;;;;;;6.90;5.93;;;;;;;20.96;71.66;100158.50;5034252;28;20029;-84
2023/07/24 07:56:11;;;;;;;7.50;6.78;;;;;;;20.20;73.69;100153.13;5020904;28;20051;-81
2023/07/24 07:58:36;;;;;;;6.93;6.25;;;;;;;19.76;76.85;100147.22;5024173;28;20057;-81
2023/07/24 08:01:05;;;;;;;7.22;6.53;;;;;;;19.56;76.52;100136.31;5027860;28;20034;-81
2023/07/24 08:03:30;;;;;;;6.55;5.95;;;;;;;19.27;79.91;100145.06;5019668;28;20030;-81
2023/07/24 08:05:59;;;;;;;6.57;5.90;;;;;;;19.20;80.09;100140.69;5012742;28;20034;-81
2023/07/24 08:08:24;;;;;;;6.85;6.15;;;;;;;18.86;82.08;100151.25;5005786;28;20029;-82
2023/07/24 08:10:50;;;;;;;6.95;5.93;;;;;;;19.39;79.93;100145.63;5029728;28;20021;-83
2023/07/24 08:13:15;;;;;;;6.82;6.13;;;;;;;19.42;79.88;100141.50;5029283;28;20369;-83
2023/07/24 08:15:40;;;;;;;7.28;5.80;;;;;;;19.99;76.38;100147.72;5024564;28;20032;-83
2023/07/24 08:18:06;;;;;;;8.60;6.32;;;;;;;19.84;77.41;100154.03;5029080;28;20040;-83
2023/07/24 08:20:32;;;;;;;7.22;6.35;;;;;;;20.29;73.78;100146.00;5029741;28;20552;-81
2023/07/24 08:22:57;;;;;;;7.85;6.85;;;;;;;20.24;73.45;100146.81;5031604;28;20337;-83
2023/07/24 08:25:23;;;;;;;8.73;6.80;;;;;;;19.66;77.04;100145.31;5029730;28;20025;-83
2023/07/24 08:27:48;;;;;;;8.27;6.82;;;;;;;19.46;78.68;100131.69;5029905;28;20032;-81
2023/07/24 08:30:14;;;;;;;9.02;6.85;;;;;;;19.14;78.25;100130.06;5028920;28;20424;-83
2023/07/24 08:32:39;;;;;;;8.77;6.88;;;;;;;18.47;80.46;100122.53;5025120;28;20071;-83
2023/07/24 08:35:05;;;;;;;9.48;7.40;;;;;;;18.31;81.71;100125.22;5029544;28;20040;-83
2023/07/24 08:37:31;;;;;;;9.20;7.65;;;;;;;18.25;82.63;100130.91;5031461;28;20032;-83
2023/07/24 08:39:56;;;;;;;10.13;7.55;;;;;;;18.52;82.54;100129.91;5017046;28;20440;-83
2023/07/24 08:42:21;;;;;;;9.48;7.53;;;;;;;18.67;82.48;100131.88;5020053;28;20160;-83
2023/07/24 08:44:47;;;;;;;9.45;7.50;;;;;;;19.18;79.72;100126.50;5026266;28;20034;-83
2023/07/24 08:47:12;;;;;;;10.07;7.88;;;;;;;19.28;80.38;100124.84;5010914;28;20036;-83
2023/07/24 08:49:40;;;;;;;12.07;9.82;;;;;;;19.09;80.74;100130.84;4998130;28;20025;-82
2023/07/24 08:52:06;;;;;;;11.95;10.25;;;;;;;19.00;80.85;100132.50;5032883;28;20201;-81
2023/07/24 08:54:31;;;;;;;11.27;9.73;;;;;;;19.03;80.57;100129.22;5023577;28;20033;-82
2023/07/24 08:56:56;;;;;;;10.70;9.55;;;;;;;19.51;79.43;100129.75;5032455;28;20026;-82
2023/07/24 08:59:22;;;;;;;11.20;10.00;;;;;;;19.78;77.17;100136.00;5034308;28;20037;-83
2023/07/24 09:01:47;;;;;;;12.27;10.05;;;;;;;19.87;75.94;100136.25;5021114;28;20028;-84
2023/07/24 09:04:13;;;;;;;12.50;10.02;;;;;;;20.05;75.83;100137.59;5030914;28;20029;-83
2023/07/24 09:06:38;;;;;;;11.75;9.77;;;;;;;19.95;74.81;100128.34;5034695;28;20493;-83
2023/07/24 09:09:12;;;;;;;11.60;9.80;;;;;;;19.71;76.67;100133.56;5034537;28;20488;-83
2023/07/24 09:11:51;;;;;;;11.23;10.13;;;;;;;19.19;80.00;100139.06;5025438;28;20036;-83
2023/07/24 09:14:26;;;;;;;13.07;10.77;;;;;;;18.82;81.12;100140.06;5026129;28;20040;-83
2023/07/24 09:17:09;;;;;;;12.70;10.18;;;;;;;18.63;79.83;100131.56;5029726;28;20037;-83
2023/07/24 09:19:35;;;;;;;13.90;10.38;;;;;;;18.31;82.01;100130.66;5030790;28;20025;-82
2023/07/24 09:22:16;;;;;;;13.45;10.82;;;;;;;17.79;84.80;100123.31;5029605;28;20045;-83
2023/07/24 09:24:52;;;;;;;12.55;11.07;;;;;;;17.82;86.05;100134.47;5021284;28;20037;-83
2023/07/24 09:27:17;;;;;;;14.32;10.10;;;;;;;17.95;85.01;100127.75;5026536;28;20489;-83
2023/07/24 09:29:43;;;;;;;10.82;9.75;;;;;;;18.41;83.59;100124.44;5000676;28;20032;-83
2023/07/24 09:32:18;;;;;;;10.98;9.38;;;;;;;18.94;84.12;100129.75;5025757;28;20034;-82
2023/07/24 09:34:44;;;;;;;10.50;9.40;;;;;;;19.15;81.23;100135.22;5021964;28;20062;-82
2023/07/24 09:37:09;;;;;;;10.70;9.38;;;;;;;20.08;77.22;100132.41;5022069;28;20029;-83
2023/07/24 09:39:35;;;;;;;9.82;8.77;;;;;;;21.14;71.81;100119.50;5029646;28;20040;-83
2023/07/24 09:42:04;;;;;;;9.70;8.40;;;;;;;22.17;66.83;100117.69;5019893;28;20025;-83
2023/07/24 09:44:31;;;;;;;10.73;8.45;;;;;;;22.03;66.38;100117.56;5034036;28;20091;-84
2023/07/24 09:46:56;;;;;;;8.48;7.68;;;;;;;21.78;66.68;100121.41;5024822;28;20322;-83
2023/07/24 09:49:21;;;;;;;8.52;7.55;;;;;;;21.98;66.05;100108.59;5007880;28;20029;-83
2023/07/24 09:51:47;;;;;;;8.52;7.60;;;;;;;21.62;65.54;100109.81;5014125;28;20052;-83
2023/07/24 09:54:26;;;;;;;9.25;6.80;;;;;;;22.53;62.13;100098.03;4986475;28;20519;-84
2023/07/24 09:56:51;;;;;;;7.28;6.57;;;;;;;22.96;60.36;100093.56;5025777;28;20473;-84
2023/07/24 09:59:17;;;;;;;9.27;7.22;;;;;;;21.95;64.64;100099.03;5032636;28;20033;-84
2023/07/24 10:01:42;;;;;;;8.00;7.20;;;;;;;21.78;66.59;100097.59;5013424;28;20362;-84
2023/07/24 10:04:08;;;;;;;8.50;6.25;;;;;;;21.96;64.24;100096.00;5012241;28;20036;-84
2023/07/24 10:06:33;;;;;;;8.43;6.32;;;;;;;22.79;63.07;100089.41;4983261;28;20022;-84
2023/07/24 10:08:59;;;;;;;6.45;5.30;;;;;;;23.02;59.03;100092.38;5029569;28;20060;-84
2023/07/24 10:11:24;;;;;;;6.28;5.30;;;;;;;23.01;58.44;100079.75;4998659;28;20051;-84
2023/07/24 10:13:49;;;;;;;5.28;4.50;;;;;;;23.50;56.97;100076.72;4996431;28;20026;-84
2023/07/24 10:16:15;;;;;;;6.85;5.28;;;;;;;23.35;58.60;100073.16;4984934;28;20052;-84
2023/07/24 10:18:45;;;;;;;5.70;4.68;;;;;;;24.04;55.59;100075.16;5024388;28;20091;-83
2023/07/24 10:21:10;;;;;;;8.32;5.50;;;;;;;23.32;57.23;100068.25;5032552;28;20154;-84
2023/07/24 10:23:37;;;;;;;5.78;4.78;;;;;;;23.44;55.82;100068.63;5033123;28;20065;-85
2023/07/24 10:26:04;;;;;;;5.55;4.68;;;;;;;22.45;58.97;100057.56;5030199;28;20053;-85
2023/07/24 10:28:38;;;;;;;8.38;5.30;;;;;;;22.30;59.08;100049.53;5023504;28;20022;-85
2023/07/24 10:31:08;;;;;;;5.55;4.88;;;;;;;21.79;61.63;100029.91;5008191;28;20405;-85
2023/07/24 10:33:34;;;;;;;6.32;4.90;;;;;;;21.70;61.97;100028.94;5032244;28;20032;-84
2023/07/24 10:36:10;;;;;;;6.15;5.45;;;;;;;21.53;63.82;100026.63;5029148;28;20157;-85
2023/07/24 10:38:37;;;;;;;7.38;5.50;;;;;;;21.78;65.18;100033.75;5029725;28;20021;-85
2023/07/24 10:41:03;;;;;;;6.63;5.13;;;;;;;21.71;64.79;100030.56;5031315;28;20155;-85
2023/07/24 10:43:29;;;;;;;6.30;5.43;;;;;;;21.78;64.75;100040.06;5063135;22;20139;-85
2023/07/24 10:45:54;;;;;;;7.43;5.53;;;;;;;21.50;64.86;100041.72;5061713;28;20063;-84
2023/07/24 10:48:21;;;;;;;6.63;5.60;;;;;;;21.33;64.98;100044.88;5055269;28;20040;-84
2023/07/24 10:50:48;;;;;;;6.63;5.93;;;;;;;21.15;67.03;100049.19;5071650;28;20035;-84
2023/07/24 10:53:15;;;;;;;6.72;6.03;;;;;;;20.98;66.81;100049.59;5073193;28;20021;-85
2023/07/24 10:55:41;;;;;;;7.38;5.70;;;;;;;20.83;65.29;100053.25;5069189;28;20036;-85
2023/07/24 10:58:07;;;;;;;5.78;5.03;;;;;;;21.07;63.44;100056.09;5070202;28;20028;-85
2023/07/24 11:00:32;;;;;;;6.15;5.43;;;;;;;20.93;64.04;100057.84;5075869;28;20388;-85
2023/07/24 11:02:58;;;;;;;8.05;5.50;;;;;;;20.41;64.41;100059.00;5070890;28;20500;-86
2023/07/24 11:05:23;;;;;;;7.18;4.97;;;;;;;20.14;65.74;100071.16;5048875;28;20032;-85
2023/07/24 11:07:49;;;;;;;7.32;4.55;;;;;;;19.97;65.56;100063.31;5060957;28;20039;-85
2023/07/24 11:10:18;;;;;;;5.32;4.82;;;;;;;19.92;65.76;100082.44;5033388;28;20029;-85
2023/07/24 11:12:44;;;;;;;6.38;5.15;;;;;;;19.65;68.26;100090.97;5064837;28;20484;-86
2023/07/24 11:15:10;;;;;;;6.63;5.65;;;;;;;19.65;68.23;100085.50;5055104;28;20046;-86